Terminal Aerodrome Forecast
Issued by NWS

Home | Current Version | Previous Version | Text Only | Print | Product List | Glossary On
Versions: 1 2 3 4 5 6 7 8 9 10 11 12 13 14 15 16 17 18 19 20 21 22 23
000
FTUS43 KFGF 231137
TAFDVL
TAF
KDVL 231137Z 2312/2412 06014G22KT P6SM OVC035
      TEMPO 2312/2315 P6SM -SN OVC020
     FM231700 09014G22KT P6SM OVC020
     FM240500 08016G24KT P6SM OVC009=

USA.gov is the U.S. government's official web portal to all federal, state and local government web resources and services.